Time;durP1;ratioP1;P1;durP2;ratioP2;P2;SDS_P1;SDS_P2;PMS_P1;PMS_P2;Temp;Humidity;BMP_temperature;BMP_pressure;BME280_temperature;BME280_humidity;BME280_pressure;Samples;Min_cycle;Max_cycle;Signal;HPM_P1;HPM_P2
2022/10/12 00:02:21;;;;;;;6.05;4.15;;;;;;;23.85;45.88;97252.91;5014376;28;20022;-27
2022/10/12 00:04:46;;;;;;;4.20;3.80;;;;;;;23.86;46.01;97248.84;5014247;28;20030;-27
2022/10/12 00:07:12;;;;;;;4.97;3.80;;;;;;;23.84;46.20;97259.69;5014060;28;20032;-27
2022/10/12 00:09:37;;;;;;;5.55;4.10;;;;;;;23.82;46.44;97253.88;5014247;28;20028;-28
2022/10/12 00:12:03;;;;;;;4.60;4.20;;;;;;;23.83;46.06;97260.94;5014173;28;20087;-27
2022/10/12 00:14:28;;;;;;;4.45;3.92;;;;;;;23.86;45.95;97254.38;5014398;28;20022;-27
2022/10/12 00:16:53;;;;;;;6.18;4.03;;;;;;;23.84;45.93;97245.06;5014016;28;20025;-27
2022/10/12 00:19:19;;;;;;;4.45;4.05;;;;;;;23.86;45.79;97254.38;5014034;28;20099;-27
2022/10/12 00:21:44;;;;;;;4.93;4.50;;;;;;;23.88;45.75;97246.34;5014113;28;20168;-27
2022/10/12 00:24:10;;;;;;;4.95;4.13;;;;;;;23.79;46.34;97246.56;5013992;28;20050;-27
2022/10/12 00:26:35;;;;;;;4.65;4.10;;;;;;;23.81;46.30;97257.91;5013844;28;20025;-26
2022/10/12 00:29:01;;;;;;;4.57;4.18;;;;;;;23.79;46.10;97246.56;5013565;28;20033;-27
2022/10/12 00:31:29;;;;;;;4.72;4.32;;;;;;;23.83;45.91;97249.09;5013683;28;20080;-27
2022/10/12 00:33:54;;;;;;;5.10;4.53;;;;;;;23.84;46.01;97248.59;5013966;28;20491;-27
2022/10/12 00:36:25;;;;;;;4.43;4.00;;;;;;;23.80;46.07;97253.59;5013104;28;20042;-27
2022/10/12 00:38:53;;;;;;;4.57;4.18;;;;;;;23.79;46.02;97249.31;5011589;28;20045;-26
2022/10/12 00:41:21;;;;;;;5.22;4.60;;;;;;;23.81;46.09;97249.59;5013004;28;20412;-27
2022/10/12 00:43:48;;;;;;;5.32;4.60;;;;;;;23.86;46.05;97251.63;5013612;28;20100;-27
2022/10/12 00:46:22;;;;;;;5.05;4.38;;;;;;;23.83;45.87;97249.09;5013610;28;20030;-27
2022/10/12 00:48:53;;;;;;;5.25;4.22;;;;;;;23.84;46.00;97251.38;5013634;28;20374;-27
2022/10/12 00:51:21;;;;;;;6.93;4.50;;;;;;;23.78;46.00;97252.59;5013808;28;20030;-27
2022/10/12 00:53:54;;;;;;;4.60;4.20;;;;;;;23.74;46.16;97247.25;5013946;28;20370;-28
2022/10/12 00:56:23;;;;;;;5.57;3.90;;;;;;;23.76;46.41;97255.09;5013642;28;20390;-27
2022/10/12 00:58:50;;;;;;;4.93;4.47;;;;;;;23.76;46.07;97250.31;5013439;28;20120;-27
2022/10/12 01:01:16;;;;;;;4.72;4.32;;;;;;;23.74;46.16;97257.63;5013458;28;20029;-27
2022/10/12 01:03:42;;;;;;;4.32;3.92;;;;;;;23.78;45.99;97253.34;5013549;28;20017;-27
2022/10/12 01:06:08;;;;;;;5.65;4.93;;;;;;;23.75;46.05;97253.56;5013825;28;20394;-27
2022/10/12 01:08:35;;;;;;;5.22;3.95;;;;;;;23.73;46.30;97256.84;5013471;28;20425;-27
2022/10/12 01:11:01;;;;;;;4.32;3.92;;;;;;;23.70;46.21;97252.28;5013557;28;20517;-27
2022/10/12 01:13:26;;;;;;;5.20;4.57;;;;;;;23.77;46.08;97251.06;5013383;28;20030;-28
2022/10/12 01:16:28;;;;;;;5.13;4.22;;;;;;;23.73;46.28;97251.31;5013626;28;20033;-27
2022/10/12 01:19:15;;;;;;;4.25;3.80;;;;;;;23.74;46.01;97250.03;5013493;28;20080;-27
2022/10/12 01:21:57;;;;;;;4.95;4.47;;;;;;;23.76;45.80;97255.84;5013128;28;20025;-28
2022/10/12 01:24:40;;;;;;;4.90;4.20;;;;;;;23.75;46.02;97250.78;5013480;28;20492;-27
2022/10/12 01:27:31;;;;;;;5.90;4.15;;;;;;;23.75;46.20;97240.47;5013549;28;20041;-27
2022/10/12 01:30:06;;;;;;;5.15;4.20;;;;;;;23.75;45.97;97246.00;5013372;28;20083;-27
2022/10/12 01:32:37;;;;;;;5.18;4.15;;;;;;;23.72;46.07;97243.50;5013484;28;20406;-26
2022/10/12 01:35:16;;;;;;;4.57;4.18;;;;;;;23.73;46.08;97243.00;5013143;28;20479;-27
2022/10/12 01:37:53;;;;;;;4.30;3.90;;;;;;;23.73;45.75;97243.00;5013476;28;20482;-27
2022/10/12 01:41:05;;;;;;;5.25;4.47;;;;;;;23.71;45.84;97242.75;5013042;28;20054;-27
2022/10/12 01:43:37;;;;;;;4.65;4.18;;;;;;;23.68;45.93;97232.66;5015837;28;20049;-27
2022/10/12 01:46:25;;;;;;;5.35;4.10;;;;;;;23.69;45.82;97242.47;5016934;28;20053;-27
2022/10/12 01:48:56;;;;;;;4.78;4.28;;;;;;;23.69;46.12;97236.94;5016197;28;20474;-29
2022/10/12 01:51:59;;;;;;;4.82;4.32;;;;;;;23.67;46.10;97241.44;5016965;28;20030;-27
2022/10/12 01:54:42;;;;;;;4.67;4.27;;;;;;;23.68;45.98;97238.19;5016731;28;20030;-29
2022/10/12 01:57:11;;;;;;;5.15;4.60;;;;;;;23.65;46.01;97239.16;5016663;28;20030;-27
2022/10/12 02:00:08;;;;;;;4.97;4.00;;;;;;;23.67;46.01;97241.44;5016435;28;20084;-26
2022/10/12 02:02:46;;;;;;;4.80;4.30;;;;;;;23.72;45.92;97243.50;5015284;28;20073;-28
2022/10/12 02:05:40;;;;;;;5.15;4.50;;;;;;;23.67;45.90;97242.19;5016485;28;20056;-27
2022/10/12 02:08:25;;;;;;;;;;;;;;;23.60;46.31;97245.44;5016898;28;20441;-28
2022/10/12 02:11:04;;;;;;;5.07;4.57;;;;;;;23.67;46.10;97241.44;5016387;28;20016;-28
2022/10/12 02:13:37;;;;;;;6.53;4.55;;;;;;;23.68;45.84;97237.41;5016344;28;20022;-27
2022/10/12 02:16:06;;;;;;;4.50;4.10;;;;;;;23.63;45.93;97241.66;5015125;28;20022;-27
2022/10/12 02:18:36;;;;;;;6.05;4.68;;;;;;;23.63;46.08;97236.88;5016149;28;20038;-27
2022/10/12 02:21:02;;;;;;;5.20;4.50;;;;;;;23.59;46.26;97239.13;5016105;28;20072;-27
2022/10/12 02:23:28;;;;;;;5.93;4.50;;;;;;;23.66;45.76;97240.69;5016396;28;20383;-28
2022/10/12 02:25:57;;;;;;;5.05;4.13;;;;;;;23.63;46.27;97238.88;5016165;28;20029;-27
2022/10/12 02:28:27;;;;;;;5.10;4.13;;;;;;;23.65;45.93;97233.63;5015977;28;20030;-27
2022/10/12 02:31:44;;;;;;;4.75;4.25;;;;;;;23.63;46.18;97236.88;5016075;28;20036;-27
2022/10/12 02:34:31;;;;;;;4.75;4.32;;;;;;;23.66;45.82;97237.91;5015817;28;20049;-27
2022/10/12 02:37:03;;;;;;;4.35;3.92;;;;;;;23.56;46.16;97231.81;5015535;28;20034;-28
2022/10/12 02:39:36;;;;;;;4.68;4.25;;;;;;;23.66;45.76;97231.63;5015622;28;20073;-27
2022/10/12 02:42:11;;;;;;;6.03;4.68;;;;;;;23.58;46.14;97239.63;5015809;28;20030;-26
2022/10/12 02:44:38;;;;;;;4.80;4.30;;;;;;;23.59;46.16;97230.06;5015720;28;20450;-28
2022/10/12 02:47:07;;;;;;;5.75;4.72;;;;;;;23.58;46.29;97228.56;5015697;28;20471;-27
2022/10/12 02:49:35;;;;;;;4.40;4.00;;;;;;;23.56;46.16;97225.53;5014316;28;20402;-27
2022/10/12 02:52:04;;;;;;;4.38;3.97;;;;;;;23.55;46.28;97222.00;5015303;28;20033;-26
2022/10/12 02:54:29;;;;;;;4.68;4.00;;;;;;;23.57;46.21;97224.28;5015454;28;20475;-27
2022/10/12 02:56:55;;;;;;;5.47;4.38;;;;;;;23.59;46.11;97217.00;5015625;28;20116;-27
2022/10/12 02:59:21;;;;;;;5.10;4.55;;;;;;;23.55;46.33;97224.75;5015548;28;20030;-27
2022/10/12 03:01:46;;;;;;;6.22;4.30;;;;;;;23.58;46.09;97223.03;5015369;28;20366;-27
2022/10/12 03:04:11;;;;;;;5.10;4.35;;;;;;;23.53;46.48;97224.50;5015452;28;20037;-26
2022/10/12 03:06:37;;;;;;;5.05;4.55;;;;;;;23.55;46.13;97222.00;5015197;28;20034;-27
2022/10/12 03:09:04;;;;;;;4.60;4.20;;;;;;;23.52;46.64;97219.44;5015475;28;20025;-27
2022/10/12 03:11:30;;;;;;;4.72;4.32;;;;;;;23.55;46.18;97218.47;5015389;28;20065;-27
2022/10/12 03:13:56;;;;;;;6.20;4.25;;;;;;;23.53;46.34;97215.41;5015193;28;20037;-27
2022/10/12 03:16:22;;;;;;;5.70;4.63;;;;;;;23.55;46.33;97219.22;5015311;28;20034;-27
2022/10/12 03:18:48;;;;;;;5.10;4.60;;;;;;;23.51;46.60;97213.16;5014849;28;20022;-27
2022/10/12 03:21:14;;;;;;;5.68;4.20;;;;;;;23.48;46.37;97216.91;5015296;28;20037;-28
2022/10/12 03:23:39;;;;;;;5.80;4.63;;;;;;;23.50;46.51;97208.06;5014907;28;20076;-26
2022/10/12 03:26:05;;;;;;;5.13;4.35;;;;;;;23.51;46.49;97212.38;5015127;28;20033;-27
2022/10/12 03:28:31;;;;;;;5.80;4.90;;;;;;;23.45;46.76;97209.56;5014859;28;20045;-27
2022/10/12 03:30:57;;;;;;;4.72;4.32;;;;;;;23.51;46.40;97213.16;5013584;28;20036;-27
2022/10/12 03:33:23;;;;;;;6.28;4.47;;;;;;;23.49;46.67;97214.88;5014766;28;20033;-27
2022/10/12 03:35:49;;;;;;;5.38;4.43;;;;;;;23.52;46.29;97213.91;5015010;28;20030;-27
2022/10/12 03:38:16;;;;;;;5.10;4.45;;;;;;;23.46;46.57;97213.09;5014714;28;20129;-27
2022/10/12 03:40:42;;;;;;;5.07;4.57;;;;;;;23.44;46.61;97204.53;5014793;28;20108;-27
2022/10/12 03:43:08;;;;;;;4.75;4.35;;;;;;;23.45;46.46;97203.28;5014903;28;20453;-27
2022/10/12 03:45:34;;;;;;;5.10;4.38;;;;;;;23.47;46.51;97206.31;5014675;28;20048;-27
2022/10/12 03:48:00;;;;;;;5.93;4.68;;;;;;;23.48;46.31;97205.81;5014721;28;20022;-28
2022/10/12 03:50:26;;;;;;;7.07;5.05;;;;;;;23.45;46.36;97203.28;5013295;28;20025;-27
2022/10/12 03:52:51;;;;;;;4.78;4.38;;;;;;;23.48;46.27;97199.53;5014511;28;20025;-27
2022/10/12 03:55:17;;;;;;;5.68;4.35;;;;;;;23.47;46.48;97201.53;5014376;28;20509;-27
2022/10/12 03:57:43;;;;;;;4.90;4.43;;;;;;;23.47;46.53;97201.53;5014458;28;20022;-27
2022/10/12 04:00:09;;;;;;;5.72;4.72;;;;;;;23.43;46.33;97197.47;5014307;28;20022;-27
2022/10/12 04:02:35;;;;;;;5.65;4.30;;;;;;;23.53;46.39;97196.81;5014596;28;20026;-29
2022/10/12 04:05:00;;;;;;;5.32;4.57;;;;;;;23.49;46.45;97199.00;5013487;28;20451;-27
2022/10/12 04:07:26;;;;;;;5.07;4.57;;;;;;;23.47;46.36;97204.31;5014482;28;20026;-28
2022/10/12 04:09:51;;;;;;;5.07;4.30;;;;;;;23.48;46.59;97210.59;5014174;28;20022;-27
2022/10/12 04:12:17;;;;;;;4.95;4.40;;;;;;;23.49;46.25;97214.88;5014365;28;20439;-27
2022/10/12 04:14:42;;;;;;;5.40;4.90;;;;;;;23.46;46.69;97221.41;5014177;28;20026;-27
2022/10/12 04:17:08;;;;;;;5.28;4.78;;;;;;;23.46;46.31;97224.16;5014068;28;20490;-27
2022/10/12 04:19:33;;;;;;;5.35;4.68;;;;;;;23.43;46.54;97225.16;5014029;28;20113;-27
2022/10/12 04:21:58;;;;;;;6.47;5.07;;;;;;;23.45;46.30;97231.72;5014017;28;20466;-28
2022/10/12 04:24:24;;;;;;;5.53;4.85;;;;;;;23.43;46.40;97227.91;5014165;28;20030;-27
2022/10/12 04:26:49;;;;;;;5.18;4.65;;;;;;;23.44;46.40;97219.13;5013839;28;20029;-27
2022/10/12 04:29:15;;;;;;;6.60;4.80;;;;;;;23.44;46.38;97212.81;5014009;28;20466;-27
2022/10/12 04:31:41;;;;;;;5.78;4.80;;;;;;;23.45;46.22;97198.50;5014036;28;20411;-28
2022/10/12 04:34:08;;;;;;;5.95;4.95;;;;;;;23.42;46.52;97207.03;5013891;28;20025;-27
2022/10/12 04:36:38;;;;;;;5.18;4.68;;;;;;;23.41;46.48;97208.28;5013789;28;20030;-27
2022/10/12 04:39:03;;;;;;;5.57;5.00;;;;;;;23.33;46.43;97198.91;5013563;28;20037;-27
2022/10/12 04:41:29;;;;;;;4.85;4.43;;;;;;;23.33;46.69;97202.44;5013524;28;20029;-29
2022/10/12 04:43:54;;;;;;;5.60;5.00;;;;;;;23.37;46.66;97205.00;5013747;28;20033;-27
2022/10/12 04:46:20;;;;;;;5.53;4.80;;;;;;;23.27;46.85;97202.38;5013749;28;20382;-27
2022/10/12 04:48:46;;;;;;;5.35;4.85;;;;;;;23.33;46.53;97201.69;5013486;28;20026;-27
2022/10/12 04:51:11;;;;;;;5.13;4.40;;;;;;;23.33;46.38;97204.44;5012602;28;20036;-29
2022/10/12 04:53:37;;;;;;;6.00;5.40;;;;;;;23.36;46.31;97217.31;5013733;28;20032;-26
2022/10/12 04:56:04;;;;;;;6.03;4.95;;;;;;;23.38;46.46;97214.78;5013509;28;20406;-27
2022/10/12 04:58:29;;;;;;;5.00;4.50;;;;;;;23.34;46.42;97225.34;5013512;28;20030;-27
2022/10/12 05:00:55;;;;;;;5.13;4.53;;;;;;;23.29;46.50;97224.81;5013661;28;20053;-27
2022/10/12 05:03:20;;;;;;;5.45;4.80;;;;;;;23.32;46.42;97222.31;5013465;28;20486;-27
2022/10/12 05:05:46;;;;;;;5.20;4.70;;;;;;;23.28;46.24;97220.50;5013565;28;20030;-27
2022/10/12 05:08:12;;;;;;;5.78;4.60;;;;;;;23.37;46.27;97229.91;5013387;28;20105;-27
2022/10/12 05:10:38;;;;;;;6.32;5.18;;;;;;;23.36;46.23;97229.16;5013321;28;20021;-28
2022/10/12 05:13:03;;;;;;;5.60;4.90;;;;;;;23.37;46.26;97227.88;5013593;28;20033;-27
2022/10/12 05:15:29;;;;;;;5.35;4.55;;;;;;;23.27;46.36;97232.84;5027708;28;20025;-28
2022/10/12 05:17:54;;;;;;;5.13;4.35;;;;;;;23.21;46.66;97223.75;5037436;28;20021;-27
2022/10/12 05:20:20;;;;;;;6.10;5.13;;;;;;;23.32;46.40;97230.59;5037319;28;20029;-27
2022/10/12 05:22:45;;;;;;;5.70;4.65;;;;;;;23.25;46.44;97223.50;5035881;28;20034;-27
2022/10/12 05:25:10;;;;;;;5.07;4.20;;;;;;;23.19;46.56;97215.16;5037083;28;20025;-27
2022/10/12 05:27:36;;;;;;;5.10;4.57;;;;;;;23.27;46.46;97221.00;5037107;28;20052;-28
2022/10/12 05:30:03;;;;;;;6.25;5.18;;;;;;;23.20;46.56;97222.22;5036832;28;20420;-26
2022/10/12 05:32:28;;;;;;;5.50;4.53;;;;;;;23.27;46.74;97221.00;5036729;28;20104;-27
2022/10/12 05:34:54;;;;;;;4.90;4.50;;;;;;;23.24;46.53;97216.47;5036784;28;20441;-27
2022/10/12 05:37:19;;;;;;;5.47;4.30;;;;;;;23.25;46.51;97215.19;5036841;28;20031;-28
2022/10/12 05:39:45;;;;;;;5.15;4.65;;;;;;;23.25;46.44;97212.44;5036452;28;20497;-27
2022/10/12 05:42:11;;;;;;;4.72;4.28;;;;;;;23.22;46.41;97216.97;5036636;28;20040;-27
2022/10/12 05:44:36;;;;;;;5.65;5.00;;;;;;;23.24;46.53;97222.75;5036930;28;20043;-27
2022/10/12 05:47:02;;;;;;;6.43;4.25;;;;;;;23.16;46.59;97221.69;5036582;28;20025;-27
2022/10/12 05:49:27;;;;;;;7.25;4.68;;;;;;;23.20;46.74;97227.75;5036540;28;20374;-28
2022/10/12 05:51:53;;;;;;;6.30;4.80;;;;;;;23.31;46.68;97229.09;5036588;28;20032;-27
2022/10/12 05:54:18;;;;;;;10.18;5.70;;;;;;;23.27;46.34;97230.06;5036505;28;20021;-27
2022/10/12 05:56:44;;;;;;;5.70;5.10;;;;;;;23.25;46.24;97227.03;5036351;28;20116;-28
2022/10/12 05:59:10;;;;;;;6.72;4.70;;;;;;;23.22;46.48;97230.03;5036379;28;20053;-27
2022/10/12 06:01:36;;;;;;;6.75;4.80;;;;;;;23.22;46.54;97230.03;5036324;28;20108;-28
2022/10/12 06:04:01;;;;;;;8.32;5.20;;;;;;;23.24;46.47;97219.97;5036262;28;20557;-28
2022/10/12 06:06:26;;;;;;;6.45;4.60;;;;;;;23.25;46.68;97229.03;5036291;28;20032;-29
2022/10/12 06:08:52;;;;;;;8.15;4.40;;;;;;;23.23;46.80;97229.56;5036074;28;20072;-27
2022/10/12 06:11:17;;;;;;;5.75;4.85;;;;;;;23.19;46.55;97242.84;5036364;28;20021;-27
2022/10/12 06:13:43;;;;;;;5.90;4.53;;;;;;;23.34;46.28;97247.50;5028972;28;20040;-27
2022/10/12 06:16:08;;;;;;;5.90;4.68;;;;;;;23.32;46.50;97256.28;5017042;28;20037;-28
2022/10/12 06:18:34;;;;;;;6.13;4.65;;;;;;;23.21;46.55;97256.94;5017951;28;20025;-27
2022/10/12 06:20:59;;;;;;;6.93;4.82;;;;;;;23.26;46.75;97258.22;5032806;28;20033;-28
2022/10/12 06:23:24;;;;;;;6.93;4.55;;;;;;;23.21;46.86;97265.25;5033941;28;20029;-29
2022/10/12 06:25:51;;;;;;;7.18;4.72;;;;;;;23.21;46.74;97261.72;5033606;28;20037;-27
2022/10/12 06:28:21;;;;;;;6.40;4.68;;;;;;;23.19;46.75;97264.22;5032944;28;20112;-29
2022/10/12 06:30:58;;;;;;;6.63;4.53;;;;;;;23.28;46.72;97266.81;5029703;28;20049;-27
2022/10/12 06:33:24;;;;;;;6.00;4.68;;;;;;;23.24;46.60;97267.00;5012378;28;20029;-28
2022/10/12 06:35:50;;;;;;;5.63;4.63;;;;;;;23.22;46.71;97268.78;5014143;28;20429;-28
2022/10/12 06:38:16;;;;;;;4.57;4.18;;;;;;;23.24;46.83;97269.78;5028628;28;20037;-28
2022/10/12 06:40:41;;;;;;;5.47;4.30;;;;;;;23.27;46.94;97274.34;5031771;28;20029;-27
2022/10/12 06:43:07;;;;;;;4.70;4.30;;;;;;;23.25;46.74;97276.84;5033763;28;20025;-27
2022/10/12 06:45:32;;;;;;;5.00;4.40;;;;;;;23.22;46.88;97288.91;5033561;28;20022;-27
2022/10/12 06:47:59;;;;;;;6.07;4.25;;;;;;;23.20;46.73;97285.88;5033307;28;20037;-27
2022/10/12 06:50:25;;;;;;;5.25;4.43;;;;;;;23.27;46.91;97282.66;5033315;28;20083;-27
2022/10/12 06:52:51;;;;;;;6.82;4.88;;;;;;;23.23;46.99;97284.91;5032185;28;20043;-27
2022/10/12 06:55:17;;;;;;;5.00;4.20;;;;;;;23.25;47.01;97278.84;5033235;28;20098;-28
2022/10/12 06:57:42;;;;;;;6.30;4.30;;;;;;;23.29;47.05;97285.69;5033530;28;20029;-28
2022/10/12 07:00:08;;;;;;;6.53;4.40;;;;;;;23.23;46.96;97287.66;5032973;28;20513;-28
2022/10/12 07:02:35;;;;;;;5.68;4.15;;;;;;;23.21;47.02;97287.38;5024101;28;20052;-27
2022/10/12 07:05:00;;;;;;;5.65;4.30;;;;;;;23.25;46.90;97295.44;5013584;28;20470;-27
2022/10/12 07:07:31;;;;;;;6.70;4.15;;;;;;;23.23;46.94;97292.44;5018620;28;20163;-27
2022/10/12 07:09:57;;;;;;;5.13;4.63;;;;;;;23.18;47.28;97288.38;5021810;28;20382;-27
2022/10/12 07:12:22;;;;;;;4.57;4.18;;;;;;;23.27;46.90;97299.25;5023968;28;20021;-27
2022/10/12 07:14:48;;;;;;;4.20;3.80;;;;;;;23.33;46.93;97291.00;5012645;28;20110;-28
2022/10/12 07:17:13;;;;;;;4.30;3.90;;;;;;;23.31;47.07;97303.81;5012721;28;20025;-27
2022/10/12 07:19:39;;;;;;;4.70;3.80;;;;;;;23.23;47.34;97295.97;5013069;28;20466;-27
2022/10/12 07:22:05;;;;;;;6.38;4.68;;;;;;;23.31;47.06;97296.28;5013151;28;20069;-27
2022/10/12 07:24:35;;;;;;;4.70;3.92;;;;;;;23.28;47.30;97298.00;5012961;28;20073;-29
2022/10/12 07:27:06;;;;;;;4.68;3.88;;;;;;;23.21;47.33;97301.22;5013214;28;20156;-27
2022/10/12 07:29:32;;;;;;;4.45;4.05;;;;;;;23.18;47.40;97301.44;5013087;28;20463;-28
2022/10/12 07:31:58;;;;;;;4.57;4.07;;;;;;;23.25;47.45;97304.50;5012926;28;20037;-27
2022/10/12 07:34:27;;;;;;;5.95;3.95;;;;;;;23.26;47.34;97308.81;5010067;28;20034;-27
2022/10/12 07:36:54;;;;;;;4.20;3.75;;;;;;;23.19;47.64;97314.03;5012511;28;20034;-27
2022/10/12 07:39:21;;;;;;;8.20;4.25;;;;;;;22.38;50.75;97317.63;5014206;28;20430;-27
2022/10/12 07:41:46;;;;;;;5.72;4.40;;;;;;;22.68;49.90;97317.50;5012002;28;20939;-28
2022/10/12 07:44:12;;;;;;;4.80;3.88;;;;;;;22.98;49.07;97318.88;5012428;28;20029;-27
2022/10/12 07:46:37;;;;;;;4.53;3.67;;;;;;;22.99;48.85;97314.84;5012482;28;20099;-27
2022/10/12 07:49:03;;;;;;;5.10;4.15;;;;;;;23.15;48.58;97311.47;5012384;28;20036;-27
2022/10/12 07:51:29;;;;;;;5.28;4.07;;;;;;;23.21;48.49;97314.31;5012422;28;20025;-27
2022/10/12 07:53:54;;;;;;;6.72;4.00;;;;;;;23.23;48.05;97309.03;5012559;28;20057;-28
2022/10/12 07:56:20;;;;;;;4.45;3.80;;;;;;;23.28;47.70;97308.31;5012611;28;20037;-26
2022/10/12 07:58:51;;;;;;;6.35;4.40;;;;;;;23.27;48.15;97302.03;5012274;28;20034;-26
2022/10/12 08:01:18;;;;;;;5.55;3.95;;;;;;;23.31;47.74;97309.34;5010819;28;20384;-27
2022/10/12 08:03:43;;;;;;;4.47;3.67;;;;;;;23.33;47.71;97307.63;5012339;28;20041;-26
2022/10/12 08:06:10;;;;;;;4.72;3.50;;;;;;;23.26;47.61;97308.03;5019625;28;20389;-27
2022/10/12 08:08:36;;;;;;;4.13;3.70;;;;;;;23.25;47.87;97307.28;5018960;28;20026;-27
2022/10/12 08:11:03;;;;;;;4.10;3.53;;;;;;;23.17;48.20;97317.28;5014621;28;20032;-26
2022/10/12 08:13:29;;;;;;;3.95;3.63;;;;;;;23.25;47.97;97312.81;5014195;28;20034;-27
2022/10/12 08:15:54;;;;;;;6.10;3.80;;;;;;;23.34;47.95;97311.16;5014230;28;20026;-27
2022/10/12 08:18:20;;;;;;;4.60;3.63;;;;;;;23.26;47.90;97303.28;5014296;28;20021;-27
2022/10/12 08:20:45;;;;;;;5.65;4.05;;;;;;;23.25;47.98;97298.22;5014135;28;20034;-28
2022/10/12 08:23:11;;;;;;;4.45;3.85;;;;;;;23.27;48.07;97304.78;5014149;28;20068;-27
2022/10/12 08:25:37;;;;;;;4.18;3.78;;;;;;;23.33;47.80;97306.84;5013852;28;20075;-27
2022/10/12 08:28:04;;;;;;;4.55;3.80;;;;;;;23.27;47.84;97304.78;5013662;28;20525;-27
2022/10/12 08:30:30;;;;;;;4.35;3.95;;;;;;;23.35;48.05;97310.66;5013936;28;20033;-26
2022/10/12 08:32:55;;;;;;;6.35;3.90;;;;;;;23.23;48.03;97309.81;5013881;28;20021;-27
2022/10/12 08:35:21;;;;;;;5.80;4.40;;;;;;;23.31;48.06;97303.81;5013633;28;20029;-27
2022/10/12 08:37:46;;;;;;;4.22;3.83;;;;;;;23.20;48.33;97308.00;5014176;28;20040;-27
2022/10/12 08:40:19;;;;;;;5.15;4.00;;;;;;;23.25;47.90;97307.28;5013590;28;20042;-29
2022/10/12 08:43:02;;;;;;;4.28;3.50;;;;;;;23.19;48.39;97302.97;5013822;28;20026;-27
2022/10/12 08:45:39;;;;;;;5.68;3.58;;;;;;;23.20;48.58;97310.78;5013726;28;20030;-26
2022/10/12 08:48:19;;;;;;;6.13;3.60;;;;;;;23.29;48.48;97307.06;5013617;28;20022;-27
2022/10/12 08:50:51;;;;;;;5.85;4.13;;;;;;;23.13;48.47;97311.19;5013450;28;20425;-27
2022/10/12 08:53:27;;;;;;;6.28;4.00;;;;;;;23.20;48.38;97308.00;5013670;28;20386;-27
2022/10/12 08:55:55;;;;;;;4.10;3.70;;;;;;;23.31;47.98;97309.34;5013703;28;20056;-27
2022/10/12 08:58:37;;;;;;;5.05;3.67;;;;;;;23.16;48.61;97309.47;5013460;28;20021;-28
2022/10/12 09:01:12;;;;;;;5.27;3.67;;;;;;;23.21;48.63;97309.53;5014005;28;20105;-27
2022/10/12 09:03:59;;;;;;;5.45;4.05;;;;;;;23.24;48.54;97305.75;5013934;28;20033;-27
2022/10/12 09:06:32;;;;;;;5.97;4.18;;;;;;;23.19;48.56;97314.78;5013841;28;20079;-27
2022/10/12 09:09:16;;;;;;;4.80;4.07;;;;;;;23.21;48.91;97317.84;5013595;28;20013;-26
2022/10/12 09:12:00;;;;;;;5.90;4.15;;;;;;;23.24;48.78;97314.06;5013489;28;20021;-27
2022/10/12 09:14:31;;;;;;;4.38;3.67;;;;;;;23.21;48.38;97320.59;5013468;28;20030;-29
2022/10/12 09:16:59;;;;;;;5.78;4.07;;;;;;;23.19;48.79;97320.31;5013430;28;20105;-27
2022/10/12 09:19:37;;;;;;;4.55;3.40;;;;;;;23.29;48.48;97324.44;5013354;28;20467;-27
2022/10/12 09:22:05;;;;;;;5.10;4.25;;;;;;;23.29;48.43;97318.91;5013331;28;20029;-26
2022/10/12 09:24:35;;;;;;;4.57;3.75;;;;;;;23.29;48.60;97320.91;5013382;28;20029;-28
2022/10/12 09:27:18;;;;;;;4.55;3.80;;;;;;;23.16;48.91;97315.75;5013294;28;20091;-27
2022/10/12 09:29:48;;;;;;;6.75;3.90;;;;;;;23.07;49.06;97315.94;5013371;28;20018;-27
2022/10/12 09:32:42;;;;;;;5.38;3.90;;;;;;;23.23;48.75;97322.88;5013177;28;20065;-27
2022/10/12 09:35:12;;;;;;;3.92;3.42;;;;;;;23.32;48.57;97321.94;5013275;28;20060;-27
2022/10/12 09:37:38;;;;;;;4.05;3.40;;;;;;;23.33;48.57;97323.47;5013465;28;20384;-28
2022/10/12 09:40:05;;;;;;;4.28;3.53;;;;;;;23.20;48.58;97321.09;5013063;28;20038;-27
2022/10/12 09:42:32;;;;;;;7.63;3.92;;;;;;;23.11;49.18;97315.72;5013287;28;20484;-27
2022/10/12 09:45:00;;;;;;;5.00;3.33;;;;;;;23.24;48.54;97313.34;5013089;28;20397;-28
2022/10/12 09:47:32;;;;;;;4.40;3.55;;;;;;;23.15;48.94;97316.25;5013126;28;20022;-26
2022/10/12 09:50:06;;;;;;;4.68;3.28;;;;;;;23.11;49.12;97319.25;5013091;28;20473;-26
2022/10/12 09:52:34;;;;;;;3.75;3.35;;;;;;;23.05;49.14;97304.59;5013537;28;20034;-27
2022/10/12 09:55:02;;;;;;;5.95;3.22;;;;;;;22.93;49.29;97306.50;5013267;28;20083;-27
2022/10/12 09:57:33;;;;;;;5.65;3.83;;;;;;;23.15;48.92;97313.47;5013292;28;20061;-26
2022/10/12 10:00:01;;;;;;;3.47;3.17;;;;;;;23.21;48.57;97315.06;5012903;28;20083;-26
2022/10/12 10:02:27;;;;;;;6.55;3.75;;;;;;;23.30;48.75;97311.34;5013343;28;20026;-28
2022/10/12 10:04:54;;;;;;;5.25;3.58;;;;;;;23.31;48.77;97314.88;5016499;28;20021;-27
2022/10/12 10:07:24;;;;;;;4.95;3.22;;;;;;;23.23;48.74;97304.28;5016931;28;20528;-26
2022/10/12 10:10:02;;;;;;;3.83;3.40;;;;;;;22.92;49.90;97293.91;5034240;28;20489;-27
2022/10/12 10:12:28;;;;;;;4.57;3.70;;;;;;;22.77;50.23;97298.78;5035259;28;20053;-26
2022/10/12 10:14:56;;;;;;;3.97;3.60;;;;;;;23.07;49.44;97298.56;5036068;28;20113;-26
2022/10/12 10:17:27;;;;;;;3.85;3.30;;;;;;;22.61;51.25;97298.56;5036170;28;20025;-27
2022/10/12 10:19:55;;;;;;;4.45;3.40;;;;;;;22.74;50.98;97287.91;5036221;28;20029;-26
2022/10/12 10:22:22;;;;;;;4.40;3.40;;;;;;;22.88;50.35;97300.88;5036186;28;20025;-27
2022/10/12 10:24:58;;;;;;;4.97;3.67;;;;;;;22.99;49.95;97300.25;5035785;28;20026;-26
2022/10/12 10:27:36;;;;;;;6.22;3.70;;;;;;;23.02;49.39;97294.50;5036208;28;20373;-26
2022/10/12 10:30:15;;;;;;;4.82;3.45;;;;;;;23.15;49.13;97299.66;5035979;28;20017;-28
2022/10/12 10:32:41;;;;;;;4.88;3.55;;;;;;;22.94;49.71;97298.94;5035715;28;20026;-27
2022/10/12 10:35:12;;;;;;;4.20;3.50;;;;;;;23.03;49.76;97307.09;5035805;28;20473;-27
2022/10/12 10:37:50;;;;;;;4.03;3.50;;;;;;;23.04;49.40;97296.78;5035711;28;20049;-27
2022/10/12 10:40:22;;;;;;;3.90;3.45;;;;;;;23.08;49.30;97309.16;5035402;28;20053;-26
2022/10/12 10:42:54;;;;;;;4.22;3.45;;;;;;;23.18;48.92;97299.44;5035776;28;20033;-26
2022/10/12 10:45:30;;;;;;;3.72;2.97;;;;;;;23.35;48.62;97301.59;5035508;28;20026;-28
2022/10/12 10:48:00;;;;;;;3.72;3.35;;;;;;;23.40;48.26;97309.94;5035447;28;20037;-26
2022/10/12 10:50:41;;;;;;;4.63;3.15;;;;;;;23.28;48.88;97305.56;5035427;28;20452;-26
2022/10/12 10:53:43;;;;;;;4.30;2.97;;;;;;;23.20;48.85;97304.47;5035483;28;20025;-26
2022/10/12 10:56:20;;;;;;;4.30;3.45;;;;;;;23.24;48.84;97305.03;5034604;28;20033;-26
2022/10/12 10:58:55;;;;;;;4.63;3.45;;;;;;;23.30;48.85;97297.53;5035086;28;20034;-26
2022/10/12 11:01:36;;;;;;;3.22;2.85;;;;;;;23.40;48.54;97303.63;5035464;28;20028;-27
2022/10/12 11:04:06;;;;;;;4.78;3.20;;;;;;;23.45;48.32;97302.94;5035277;28;20371;-27
2022/10/12 11:06:41;;;;;;;3.70;3.33;;;;;;;23.42;48.51;97295.59;5035263;28;20017;-27
2022/10/12 11:09:17;;;;;;;4.03;3.20;;;;;;;23.36;48.51;97290.03;5035185;28;20021;-26
2022/10/12 11:11:46;;;;;;;3.88;3.47;;;;;;;23.48;48.20;97293.66;5035059;28;20474;-26
2022/10/12 11:14:20;;;;;;;3.42;3.03;;;;;;;23.44;48.17;97284.81;5034633;28;20436;-28
2022/10/12 11:16:51;;;;;;;3.50;3.20;;;;;;;23.49;47.91;97284.81;5035219;28;20025;-27
2022/10/12 11:19:32;;;;;;;3.70;3.13;;;;;;;23.36;48.59;97283.75;5034833;28;20025;-26
2022/10/12 11:22:29;;;;;;;7.07;3.30;;;;;;;23.41;48.23;97285.78;5034870;28;20026;-26
2022/10/12 11:25:25;;;;;;;4.10;3.35;;;;;;;23.38;48.61;97281.22;5034917;28;20029;-27
2022/10/12 11:27:51;;;;;;;3.55;3.25;;;;;;;23.41;48.42;97281.00;5034710;28;20017;-26
2022/10/12 11:30:27;;;;;;;4.22;3.50;;;;;;;23.44;48.62;97280.03;5034702;28;20088;-26
2022/10/12 11:33:00;;;;;;;3.63;3.00;;;;;;;23.37;48.80;97282.50;5034765;28;20060;-26
2022/10/12 11:35:30;;;;;;;4.10;3.20;;;;;;;23.42;48.43;97281.75;5034644;28;20477;-26
2022/10/12 11:38:24;;;;;;;3.78;2.92;;;;;;;23.45;48.11;97269.72;5034857;28;20029;-26
2022/10/12 11:41:13;;;;;;;4.65;3.58;;;;;;;23.28;48.63;97273.09;5034404;28;20087;-26
2022/10/12 11:43:48;;;;;;;3.25;2.90;;;;;;;23.18;49.10;97274.53;5034469;28;20071;-26
2022/10/12 11:46:17;;;;;;;4.13;3.10;;;;;;;22.97;49.38;97278.63;5034659;28;20561;-26
2022/10/12 11:48:42;;;;;;;3.70;2.80;;;;;;;23.20;48.94;97272.03;5034333;28;20116;-26